createdAt,value
2023-03-04T00:02:05.404Z,7.60
2023-03-04T00:04:31.980Z,7.50
2023-03-04T00:06:58.500Z,7.80
2023-03-04T00:09:25.097Z,8.20
2023-03-04T00:11:52.051Z,7.70
2023-03-04T00:14:18.659Z,7.87
2023-03-04T00:16:45.245Z,7.33
2023-03-04T00:19:11.869Z,7.40
2023-03-04T00:21:38.489Z,7.80
2023-03-04T00:24:05.243Z,7.47
2023-03-04T00:26:32.181Z,6.40
2023-03-04T00:28:58.736Z,7.87
2023-03-04T00:31:25.340Z,8.27
2023-03-04T00:33:51.876Z,7.50
2023-03-04T00:36:18.435Z,7.77
2023-03-04T00:38:44.948Z,7.87
2023-03-04T00:41:11.450Z,7.97
2023-03-04T00:43:37.991Z,7.37
2023-03-04T00:46:04.765Z,7.97
2023-03-04T00:48:31.387Z,8.00
2023-03-04T00:50:57.895Z,7.77
2023-03-04T00:53:24.457Z,7.77
2023-03-04T00:55:51.095Z,7.80
2023-03-04T00:58:17.619Z,7.53
2023-03-04T01:00:44.089Z,7.93
2023-03-04T01:03:10.652Z,7.73
2023-03-04T01:05:37.161Z,8.63
2023-03-04T01:08:04.245Z,7.93
2023-03-04T01:10:30.954Z,7.63
2023-03-04T01:12:57.565Z,7.87
2023-03-04T01:15:24.166Z,7.40
2023-03-04T01:17:50.855Z,8.10
2023-03-04T01:20:17.455Z,8.10
2023-03-04T01:22:43.995Z,7.50
2023-03-04T01:25:10.978Z,7.60
2023-03-04T01:27:37.504Z,7.23
2023-03-04T01:30:04.657Z,7.90
2023-03-04T01:32:31.357Z,7.47
2023-03-04T01:34:57.988Z,7.87
2023-03-04T01:37:24.511Z,7.43
2023-03-04T01:39:51.018Z,8.57
2023-03-04T01:42:22.283Z,8.13
2023-03-04T01:44:48.882Z,7.27
2023-03-04T01:47:15.548Z,7.20
2023-03-04T01:49:42.182Z,8.50
2023-03-04T01:52:14.840Z,7.17
2023-03-04T01:54:41.480Z,7.47
2023-03-04T01:57:21.122Z,7.57
2023-03-04T01:59:48.007Z,7.47
2023-03-04T02:02:14.583Z,7.60
2023-03-04T02:04:41.275Z,7.80
2023-03-04T02:07:07.833Z,7.33
2023-03-04T02:09:35.727Z,7.20
2023-03-04T02:12:02.390Z,8.30
2023-03-04T02:14:28.954Z,7.60
2023-03-04T02:16:55.498Z,8.03
2023-03-04T02:19:24.891Z,7.83
2023-03-04T02:21:51.421Z,8.27
2023-03-04T02:24:34.450Z,8.93
2023-03-04T02:27:00.960Z,7.37
2023-03-04T02:29:27.714Z,8.07
2023-03-04T02:31:54.279Z,8.20
2023-03-04T02:34:25.778Z,7.93
2023-03-04T02:36:53.531Z,7.37
2023-03-04T02:39:19.941Z,7.83
2023-03-04T02:41:50.606Z,8.00
2023-03-04T02:44:18.321Z,7.20
2023-03-04T02:46:45.060Z,7.63
2023-03-04T02:49:11.558Z,8.00
2023-03-04T02:51:38.150Z,7.83
2023-03-04T02:54:05.040Z,7.73
2023-03-04T02:56:31.582Z,8.17
2023-03-04T02:58:58.125Z,8.27
2023-03-04T03:01:28.779Z,7.63
2023-03-04T03:03:55.338Z,7.00
2023-03-04T03:06:21.906Z,7.80
2023-03-04T03:08:48.401Z,8.07
2023-03-04T03:11:14.981Z,7.90
2023-03-04T03:13:41.474Z,7.60
2023-03-04T03:16:08.055Z,8.23
2023-03-04T03:18:34.629Z,7.73
2023-03-04T03:21:01.219Z,7.67
2023-03-04T03:23:27.722Z,7.47
2023-03-04T03:25:54.232Z,8.00
2023-03-04T03:28:20.738Z,7.90
2023-03-04T03:30:47.262Z,7.77
2023-03-04T03:33:13.805Z,8.07
2023-03-04T03:35:40.377Z,7.60
2023-03-04T03:38:06.977Z,7.57
2023-03-04T03:40:33.514Z,7.73
2023-03-04T03:43:00.166Z,8.10
2023-03-04T03:45:26.699Z,7.73
2023-03-04T03:47:53.288Z,8.07
2023-03-04T03:50:19.811Z,7.33
2023-03-04T03:52:46.361Z,7.70
2023-03-04T03:55:12.857Z,7.93
2023-03-04T03:57:39.375Z,8.40
2023-03-04T04:00:06.562Z,7.90
2023-03-04T04:02:33.181Z,7.77
2023-03-04T04:04:59.737Z,7.17
2023-03-04T04:07:26.222Z,7.37
2023-03-04T04:09:52.740Z,7.40
2023-03-04T04:12:19.294Z,7.80
2023-03-04T04:14:45.870Z,7.40
2023-03-04T04:17:13.874Z,7.47
2023-03-04T04:19:40.802Z,7.77
2023-03-04T04:22:25.539Z,7.20
2023-03-04T04:24:52.042Z,7.87
2023-03-04T04:27:18.618Z,7.60
2023-03-04T04:29:45.207Z,7.43
2023-03-04T04:32:13.284Z,7.27
2023-03-04T04:34:39.879Z,7.60
2023-03-04T04:37:06.414Z,7.63
2023-03-04T04:39:32.965Z,7.93
2023-03-04T04:41:59.475Z,7.60
2023-03-04T04:44:25.990Z,7.50
2023-03-04T04:46:52.458Z,7.93
2023-03-04T04:49:19.021Z,8.10
2023-03-04T04:51:45.556Z,8.13
2023-03-04T04:54:12.381Z,7.40
2023-03-04T04:56:38.881Z,7.20
2023-03-04T04:59:08.476Z,7.83
2023-03-04T05:01:35.269Z,7.77
2023-03-04T05:04:01.966Z,7.50
2023-03-04T05:06:28.585Z,8.20
2023-03-04T05:08:55.085Z,8.13
2023-03-04T05:11:21.829Z,8.17
2023-03-04T05:13:48.581Z,7.40
2023-03-04T05:16:16.221Z,7.53
2023-03-04T05:18:42.756Z,8.20
2023-03-04T05:21:09.414Z,8.03
2023-03-04T05:23:37.671Z,7.67
2023-03-04T05:26:04.544Z,7.97
2023-03-04T05:28:31.126Z,7.67
2023-03-04T05:30:57.807Z,7.83
2023-03-04T05:33:24.349Z,7.77
2023-03-04T05:35:50.934Z,8.77
2023-03-04T05:38:18.732Z,7.77
2023-03-04T05:40:45.802Z,7.83
2023-03-04T05:43:12.438Z,7.93
2023-03-04T05:45:39.241Z,8.10
2023-03-04T05:48:05.910Z,7.80
2023-03-04T05:50:32.451Z,7.77
2023-03-04T05:52:58.942Z,7.80
2023-03-04T05:55:25.595Z,7.03
2023-03-04T05:57:52.078Z,7.43
2023-03-04T06:00:18.797Z,8.07
2023-03-04T06:02:45.379Z,7.97
2023-03-04T06:05:13.089Z,7.40
2023-03-04T06:07:39.686Z,7.83
2023-03-04T06:10:07.030Z,7.53
2023-03-04T06:12:33.535Z,8.10
2023-03-04T06:15:00.107Z,8.13
2023-03-04T06:17:26.646Z,7.87
2023-03-04T06:19:53.129Z,8.00
2023-03-04T06:22:19.649Z,7.63
2023-03-04T06:24:46.209Z,7.70
2023-03-04T06:27:13.573Z,7.60
2023-03-04T06:29:40.099Z,7.67
2023-03-04T06:32:06.753Z,7.60
2023-03-04T06:34:33.830Z,7.37
2023-03-04T06:37:00.495Z,7.53
2023-03-04T06:39:27.010Z,8.13
2023-03-04T06:41:53.507Z,7.40
2023-03-04T06:44:20.064Z,7.83
2023-03-04T06:46:46.906Z,7.70
2023-03-04T06:49:13.508Z,7.47
2023-03-04T06:51:40.002Z,7.57
2023-03-04T06:54:06.590Z,7.33
2023-03-04T06:56:33.145Z,8.37
2023-03-04T06:58:59.690Z,7.63
2023-03-04T07:01:27.074Z,8.10
2023-03-04T07:03:53.904Z,7.50
2023-03-04T07:06:21.870Z,7.53
2023-03-04T07:08:48.491Z,7.77
2023-03-04T07:11:15.242Z,7.23
2023-03-04T07:13:41.881Z,7.53
2023-03-04T07:16:09.613Z,7.73
2023-03-04T07:18:36.610Z,7.63
2023-03-04T07:21:03.458Z,7.50
2023-03-04T07:23:29.993Z,7.67
2023-03-04T07:25:58.739Z,7.80
2023-03-04T07:28:26.308Z,7.40
2023-03-04T07:30:52.826Z,7.63
2023-03-04T07:33:19.482Z,7.50
2023-03-04T07:35:46.103Z,7.07
2023-03-04T07:38:12.747Z,7.30
2023-03-04T07:40:39.331Z,7.10
2023-03-04T07:43:05.886Z,7.73
2023-03-04T07:45:32.613Z,7.20
2023-03-04T07:47:59.164Z,6.80
2023-03-04T07:50:25.645Z,6.53
2023-03-04T07:52:52.229Z,7.33
2023-03-04T07:55:18.910Z,7.50
2023-03-04T07:57:46.869Z,6.83
2023-03-04T08:00:14.622Z,7.07
2023-03-04T08:02:41.295Z,6.70
2023-03-04T08:05:08.322Z,6.97
2023-03-04T08:07:34.988Z,6.50
2023-03-04T08:10:01.665Z,7.17
2023-03-04T08:12:28.301Z,6.73
2023-03-04T08:14:54.792Z,6.70
2023-03-04T08:17:21.525Z,6.23
2023-03-04T08:19:48.087Z,6.40
2023-03-04T08:22:14.679Z,6.67
2023-03-04T08:24:41.183Z,6.10
2023-03-04T08:27:07.687Z,6.13
2023-03-04T08:29:34.265Z,6.30
2023-03-04T08:32:00.971Z,6.20
2023-03-04T08:34:27.835Z,6.13
2023-03-04T08:36:54.522Z,5.80
2023-03-04T08:39:21.152Z,5.70
2023-03-04T08:41:47.758Z,5.80
2023-03-04T08:44:14.303Z,6.10
2023-03-04T08:46:41.594Z,6.07
2023-03-04T08:49:08.398Z,5.70
2023-03-04T08:51:35.758Z,6.17
2023-03-04T08:54:03.421Z,5.87
2023-03-04T08:56:30.077Z,6.20
2023-03-04T08:58:56.653Z,6.00
2023-03-04T09:01:23.297Z,5.43
2023-03-04T09:03:50.018Z,5.90
2023-03-04T09:06:16.965Z,5.40
2023-03-04T09:08:44.228Z,5.57
2023-03-04T09:11:10.795Z,5.80
2023-03-04T09:13:37.442Z,5.27
2023-03-04T09:16:04.094Z,6.07
2023-03-04T09:18:30.709Z,5.47
2023-03-04T09:20:57.214Z,5.57
2023-03-04T09:23:23.832Z,5.40
2023-03-04T09:25:50.555Z,5.00
2023-03-04T09:28:17.285Z,5.20
2023-03-04T09:30:44.138Z,5.17
2023-03-04T09:33:10.850Z,4.73
2023-03-04T09:35:37.481Z,5.50
2023-03-04T09:38:04.090Z,4.80
2023-03-04T09:40:48.054Z,5.40
2023-03-04T09:43:20.956Z,5.10
2023-03-04T09:45:50.092Z,5.20
2023-03-04T09:48:18.494Z,4.90
2023-03-04T09:51:17.106Z,4.63
2023-03-04T09:53:43.546Z,5.10
2023-03-04T09:56:11.083Z,4.57
2023-03-04T09:58:46.040Z,5.27
2023-03-04T10:01:21.623Z,5.00
2023-03-04T10:03:55.269Z,4.60
2023-03-04T10:06:21.915Z,4.57
2023-03-04T10:09:03.153Z,4.63
2023-03-04T10:11:35.452Z,4.63
2023-03-04T10:14:32.617Z,4.80
2023-03-04T10:17:22.124Z,4.07
2023-03-04T10:20:07.879Z,5.03
2023-03-04T10:22:42.362Z,4.50
2023-03-04T10:25:19.235Z,5.13
2023-03-04T10:28:13.331Z,4.80
2023-03-04T10:30:51.352Z,4.40
2023-03-04T10:33:22.830Z,4.13
2023-03-04T10:36:23.851Z,4.30
2023-03-04T10:38:53.132Z,4.80
2023-03-04T10:41:24.911Z,4.33
2023-03-04T10:44:09.567Z,4.47
2023-03-04T10:46:42.969Z,4.70
2023-03-04T10:49:15.118Z,4.07
2023-03-04T10:51:44.700Z,4.50
2023-03-04T10:54:35.582Z,4.00
2023-03-04T10:57:06.443Z,4.40
2023-03-04T10:59:46.308Z,4.20
2023-03-04T11:02:15.730Z,3.87
2023-03-04T11:04:42.235Z,4.00
2023-03-04T11:07:10.756Z,4.40
2023-03-04T11:09:37.305Z,4.10
2023-03-04T11:12:06.431Z,4.00
2023-03-04T11:14:46.024Z,4.37
2023-03-04T11:17:20.003Z,4.40
2023-03-04T11:20:00.173Z,4.07
2023-03-04T11:22:26.783Z,4.23
2023-03-04T11:25:02.449Z,3.80
2023-03-04T11:27:46.774Z,4.00
2023-03-04T11:30:39.867Z,3.97
2023-03-04T11:33:35.868Z,4.27
2023-03-04T11:36:08.505Z,4.33
2023-03-04T11:38:44.571Z,3.73
2023-03-04T11:41:22.198Z,3.73
2023-03-04T11:43:48.823Z,3.97
2023-03-04T11:46:35.703Z,3.80
2023-03-04T11:49:15.429Z,3.87
2023-03-04T11:52:03.713Z,3.90
2023-03-04T11:54:36.022Z,3.93
2023-03-04T11:57:27.517Z,4.33
2023-03-04T12:00:28.013Z,3.47
2023-03-04T12:03:42.624Z,3.10
2023-03-04T12:06:33.111Z,3.80
2023-03-04T12:09:38.555Z,4.10
2023-03-04T12:12:33.753Z,3.93
2023-03-04T12:15:09.269Z,3.93
2023-03-04T12:17:58.888Z,4.13
2023-03-04T12:20:46.377Z,3.63
2023-03-04T12:23:19.301Z,3.73
2023-03-04T12:25:49.007Z,3.73
2023-03-04T12:28:37.793Z,3.77
2023-03-04T12:31:20.198Z,3.57
2023-03-04T12:33:54.223Z,3.77
2023-03-04T12:36:29.879Z,3.43
2023-03-04T12:39:00.322Z,3.57
2023-03-04T12:41:28.428Z,3.83
2023-03-04T12:44:13.359Z,3.83
2023-03-04T12:46:45.893Z,3.53
2023-03-04T12:50:01.051Z,3.73
2023-03-04T12:52:37.088Z,3.87
2023-03-04T12:55:05.001Z,3.50
2023-03-04T12:57:31.794Z,3.57
2023-03-04T13:00:00.614Z,4.07
2023-03-04T13:02:58.921Z,3.50
2023-03-04T13:05:29.710Z,3.50
2023-03-04T13:08:13.763Z,3.60
2023-03-04T13:10:40.373Z,3.60
2023-03-04T13:13:35.114Z,3.20
2023-03-04T13:16:06.967Z,3.83
2023-03-04T13:18:35.151Z,3.27
2023-03-04T13:21:13.768Z,3.13
2023-03-04T13:23:40.295Z,3.47
2023-03-04T13:26:25.680Z,3.30
2023-03-04T13:28:53.778Z,3.30
2023-03-04T13:31:23.750Z,3.87
2023-03-04T13:33:53.226Z,3.43
2023-03-04T13:36:30.922Z,3.47
2023-03-04T13:39:01.837Z,3.40
2023-03-04T13:41:33.890Z,3.30
2023-03-04T13:44:01.790Z,3.40
2023-03-04T13:46:29.676Z,3.20
2023-03-04T13:48:56.122Z,3.20
2023-03-04T13:51:32.874Z,3.33
2023-03-04T13:53:59.298Z,3.63
2023-03-04T13:56:37.561Z,3.20
2023-03-04T13:59:35.723Z,3.30
2023-03-04T14:02:20.091Z,3.40
2023-03-04T14:04:57.019Z,3.40
2023-03-04T14:07:30.324Z,3.30
2023-03-04T14:10:13.056Z,3.47
2023-03-04T14:12:52.671Z,2.93
2023-03-04T14:15:21.260Z,2.90
2023-03-04T14:17:49.678Z,3.13
2023-03-04T14:20:29.086Z,3.30
2023-03-04T14:22:56.086Z,3.13
2023-03-04T14:25:25.061Z,3.13
2023-03-04T14:28:02.606Z,2.93
2023-03-04T14:30:41.645Z,3.23
2023-03-04T14:33:14.351Z,3.40
2023-03-04T14:35:41.225Z,3.43
2023-03-04T14:38:20.875Z,2.90
2023-03-04T14:40:50.527Z,2.80
2023-03-04T14:43:21.168Z,3.37
2023-03-04T14:45:50.254Z,3.10
2023-03-04T14:48:19.240Z,2.90
2023-03-04T14:50:49.922Z,3.30
2023-03-04T14:53:18.159Z,3.20
2023-03-04T14:56:04.489Z,2.63
2023-03-04T14:58:32.021Z,3.20
2023-03-04T15:01:19.274Z,3.20
2023-03-04T15:03:57.429Z,3.03
2023-03-04T15:06:25.226Z,2.80
2023-03-04T15:09:27.689Z,2.93
2023-03-04T15:12:04.144Z,3.37
2023-03-04T15:14:44.870Z,2.90
2023-03-04T15:17:42.561Z,3.00
2023-03-04T15:20:09.175Z,3.10
2023-03-04T15:22:45.222Z,3.33
2023-03-04T15:25:21.099Z,2.90
2023-03-04T15:27:48.073Z,2.93
2023-03-04T15:30:24.122Z,3.27
2023-03-04T15:32:50.667Z,3.00
2023-03-04T15:35:18.239Z,3.17
2023-03-04T15:37:44.895Z,2.60
2023-03-04T15:40:25.093Z,2.90
2023-03-04T15:42:51.689Z,2.67
2023-03-04T15:45:22.608Z,2.90
2023-03-04T15:47:49.229Z,2.70
2023-03-04T15:50:17.138Z,3.33
2023-03-04T15:52:43.680Z,3.07
2023-03-04T15:55:22.630Z,2.80
2023-03-04T15:57:51.937Z,2.77
2023-03-04T16:00:18.650Z,3.00
2023-03-04T16:02:46.270Z,3.07
2023-03-04T16:05:12.912Z,3.20
2023-03-04T16:07:40.601Z,3.00
2023-03-04T16:10:09.316Z,3.00
2023-03-04T16:12:35.847Z,2.87
2023-03-04T16:15:03.630Z,2.87
2023-03-04T16:17:31.047Z,2.93
2023-03-04T16:19:57.617Z,3.13
2023-03-04T16:22:25.394Z,3.00
2023-03-04T16:24:52.264Z,2.73
2023-03-04T16:27:19.019Z,2.83
2023-03-04T16:29:45.563Z,2.80
2023-03-04T16:32:12.239Z,2.63
2023-03-04T16:34:38.845Z,2.70
2023-03-04T16:37:13.767Z,3.17
2023-03-04T16:39:44.186Z,2.77
2023-03-04T16:42:18.974Z,2.70
2023-03-04T16:44:46.194Z,2.53
2023-03-04T16:47:12.696Z,3.07
2023-03-04T16:49:39.275Z,3.03
2023-03-04T16:52:06.265Z,2.60
2023-03-04T16:54:34.194Z,2.90
2023-03-04T16:57:00.809Z,2.50
2023-03-04T16:59:28.278Z,2.90
2023-03-04T17:01:54.981Z,2.50
2023-03-04T17:04:22.034Z,2.90
2023-03-04T17:06:48.656Z,2.47
2023-03-04T17:09:15.220Z,2.57
2023-03-04T17:11:41.806Z,2.60
2023-03-04T17:14:08.298Z,2.70
2023-03-04T17:16:36.063Z,2.90
2023-03-04T17:19:02.598Z,2.60
2023-03-04T17:21:29.675Z,2.80
2023-03-04T17:23:56.329Z,2.57
2023-03-04T17:26:22.995Z,2.93
2023-03-04T17:28:50.282Z,2.87
2023-03-04T17:31:18.126Z,2.53
2023-03-04T17:33:44.850Z,3.07
2023-03-04T17:36:13.378Z,2.57
2023-03-04T17:38:39.925Z,2.70
2023-03-04T17:41:07.764Z,2.53
2023-03-04T17:43:34.250Z,2.90
2023-03-04T17:46:05.259Z,2.50
2023-03-04T17:48:31.895Z,2.73
2023-03-04T17:50:58.402Z,2.60
2023-03-04T17:53:24.954Z,2.90
2023-03-04T17:55:55.903Z,2.80
2023-03-04T17:58:22.970Z,2.90
2023-03-04T18:00:50.157Z,2.73
2023-03-04T18:03:16.850Z,2.57
2023-03-04T18:05:43.438Z,2.80
2023-03-04T18:08:09.983Z,2.40
2023-03-04T18:10:36.481Z,2.27
2023-03-04T18:13:03.174Z,2.80
2023-03-04T18:15:29.788Z,2.80
2023-03-04T18:17:56.372Z,2.53
2023-03-04T18:20:22.862Z,3.00
2023-03-04T18:22:49.411Z,2.50
2023-03-04T18:25:16.844Z,2.67
2023-03-04T18:27:43.351Z,2.57
2023-03-04T18:30:11.777Z,2.57
2023-03-04T18:32:51.320Z,2.47
2023-03-04T18:35:19.679Z,2.63
2023-03-04T18:37:46.553Z,2.90
2023-03-04T18:40:13.689Z,2.80
2023-03-04T18:42:40.306Z,2.80
2023-03-04T18:45:07.597Z,2.90
2023-03-04T18:47:34.120Z,3.07
2023-03-04T18:50:00.699Z,3.00
2023-03-04T18:52:27.292Z,2.67
2023-03-04T18:54:53.870Z,2.80
2023-03-04T18:57:20.486Z,2.60
2023-03-04T18:59:49.757Z,2.83
2023-03-04T19:02:36.176Z,2.93
2023-03-04T19:05:12.750Z,2.80
2023-03-04T19:07:39.288Z,3.00
2023-03-04T19:10:06.285Z,3.07
2023-03-04T19:12:33.992Z,3.00
2023-03-04T19:15:00.843Z,2.87
2023-03-04T19:17:31.760Z,2.60
2023-03-04T19:19:59.074Z,2.80
2023-03-04T19:22:25.602Z,2.90
2023-03-04T19:24:52.137Z,2.90
2023-03-04T19:27:18.636Z,2.70
2023-03-04T19:29:45.249Z,3.00
2023-03-04T19:32:11.838Z,2.90
2023-03-04T19:34:38.369Z,2.93
2023-03-04T19:37:04.895Z,2.97
2023-03-04T19:39:31.454Z,3.00
2023-03-04T19:41:58.017Z,2.80
2023-03-04T19:44:24.628Z,2.83
2023-03-04T19:46:51.154Z,2.90
2023-03-04T19:49:17.685Z,2.87
2023-03-04T19:51:44.207Z,3.00
2023-03-04T19:54:10.959Z,3.20
2023-03-04T19:56:37.466Z,2.73
2023-03-04T19:59:04.133Z,3.10
2023-03-04T20:01:35.133Z,2.80
2023-03-04T20:04:07.117Z,2.90
2023-03-04T20:06:35.742Z,2.80
2023-03-04T20:09:02.290Z,2.90
2023-03-04T20:11:29.139Z,2.70
2023-03-04T20:13:58.332Z,3.00
2023-03-04T20:16:25.461Z,3.30
2023-03-04T20:18:52.361Z,3.17
2023-03-04T20:21:18.890Z,2.43
2023-03-04T20:23:45.439Z,3.07
2023-03-04T20:26:12.008Z,2.80
2023-03-04T20:28:38.564Z,2.73
2023-03-04T20:31:20.472Z,2.80
2023-03-04T20:33:50.324Z,2.67
2023-03-04T20:36:17.674Z,3.00
2023-03-04T20:38:44.463Z,2.60
2023-03-04T20:41:11.297Z,3.03
2023-03-04T20:43:37.841Z,2.90
2023-03-04T20:46:29.332Z,2.67
2023-03-04T20:48:56.989Z,3.03
2023-03-04T20:51:25.795Z,2.80
2023-03-04T20:53:55.012Z,3.20
2023-03-04T20:56:22.180Z,2.73
2023-03-04T20:58:49.232Z,3.07
2023-03-04T21:01:15.784Z,2.87
2023-03-04T21:03:42.351Z,2.93
2023-03-04T21:06:09.863Z,3.17
2023-03-04T21:08:36.477Z,3.10
2023-03-04T21:11:03.021Z,2.80
2023-03-04T21:13:32.815Z,3.10
2023-03-04T21:15:59.486Z,3.07
2023-03-04T21:18:27.977Z,3.23
2023-03-04T21:20:55.106Z,3.17
2023-03-04T21:23:21.722Z,3.30
2023-03-04T21:25:48.738Z,3.37
2023-03-04T21:28:15.733Z,2.83
2023-03-04T21:30:42.498Z,3.37
2023-03-04T21:33:15.695Z,2.80
2023-03-04T21:35:42.232Z,3.07
2023-03-04T21:38:08.768Z,3.10
2023-03-04T21:40:35.282Z,3.20
2023-03-04T21:43:02.031Z,3.13
2023-03-04T21:45:28.638Z,3.03
2023-03-04T21:47:55.183Z,3.40
2023-03-04T21:50:21.728Z,2.80
2023-03-04T21:52:48.328Z,2.97
2023-03-04T21:55:14.985Z,3.00
2023-03-04T21:57:41.496Z,2.83
2023-03-04T22:00:10.878Z,3.00
2023-03-04T22:02:37.395Z,3.10
2023-03-04T22:05:04.133Z,3.17
2023-03-04T22:07:30.866Z,3.30
2023-03-04T22:09:59.396Z,3.00
2023-03-04T22:12:25.955Z,3.40
2023-03-04T22:14:52.454Z,3.17
2023-03-04T22:17:19.094Z,3.20
2023-03-04T22:19:45.638Z,3.13
2023-03-04T22:22:12.232Z,3.30
2023-03-04T22:24:38.751Z,3.13
2023-03-04T22:27:05.262Z,3.50
2023-03-04T22:29:31.819Z,3.13
2023-03-04T22:31:58.615Z,3.50
2023-03-04T22:34:25.417Z,3.20
2023-03-04T22:36:51.944Z,3.43
2023-03-04T22:39:19.328Z,3.33
2023-03-04T22:41:45.995Z,3.13
2023-03-04T22:44:13.615Z,3.10
2023-03-04T22:46:40.244Z,3.30
2023-03-04T22:49:11.119Z,3.20
2023-03-04T22:51:38.487Z,3.43
2023-03-04T22:54:05.050Z,3.53
2023-03-04T22:56:31.607Z,3.43
2023-03-04T22:58:58.156Z,3.50
2023-03-04T23:01:24.826Z,3.60
2023-03-04T23:03:51.553Z,3.30
2023-03-04T23:06:20.172Z,3.20
2023-03-04T23:08:47.897Z,3.30
2023-03-04T23:11:16.493Z,3.43
2023-03-04T23:13:43.018Z,3.17
2023-03-04T23:16:11.004Z,3.17
2023-03-04T23:18:38.414Z,3.30
2023-03-04T23:21:11.351Z,3.67
2023-03-04T23:23:38.423Z,3.80
2023-03-04T23:26:05.251Z,3.17
2023-03-04T23:28:31.798Z,4.10
2023-03-04T23:30:58.309Z,3.67
2023-03-04T23:33:24.806Z,3.87
2023-03-04T23:35:51.404Z,3.37
2023-03-04T23:38:17.931Z,3.63
2023-03-04T23:40:44.500Z,3.90
2023-03-04T23:43:11.034Z,3.60
2023-03-04T23:45:37.946Z,3.83
2023-03-04T23:48:04.662Z,3.87
2023-03-04T23:50:32.224Z,3.70
2023-03-04T23:52:58.742Z,3.70
2023-03-04T23:55:25.307Z,3.50
2023-03-04T23:57:51.835Z,3.40
